sensor_id;sensor_type;location;lat;lon;timestamp;pressure;altitude;pressure_sealevel;temperature;humidity
60345;BME280;46188;52.324;8.032;2023-03-05T00:02:01;100894.09;;;2.76;100.00
60345;BME280;46188;52.324;8.032;2023-03-05T00:04:27;100901.31;;;2.82;100.00
60345;BME280;46188;52.324;8.032;2023-03-05T00:06:52;100887.81;;;2.73;100.00
60345;BME280;46188;52.324;8.032;2023-03-05T00:09:19;100885.38;;;2.76;100.00
60345;BME280;46188;52.324;8.032;2023-03-05T00:11:45;100882.78;;;2.76;100.00
60345;BME280;46188;52.324;8.032;2023-03-05T00:14:11;100879.66;;;2.65;100.00
60345;BME280;46188;52.324;8.032;2023-03-05T00:16:36;100883.00;;;2.63;100.00
60345;BME280;46188;52.324;8.032;2023-03-05T00:19:02;100876.66;;;2.57;100.00
60345;BME280;46188;52.324;8.032;2023-03-05T00:21:34;100874.88;;;2.56;100.00
60345;BME280;46188;52.324;8.032;2023-03-05T00:24:01;100872.78;;;2.49;100.00
60345;BME280;46188;52.324;8.032;2023-03-05T00:26:27;100865.44;;;2.58;100.00
60345;BME280;46188;52.324;8.032;2023-03-05T00:28:54;100867.84;;;2.72;100.00
60345;BME280;46188;52.324;8.032;2023-03-05T00:31:22;100859.41;;;2.77;100.00
60345;BME280;46188;52.324;8.032;2023-03-05T00:33:52;100866.72;;;2.85;100.00
60345;BME280;46188;52.324;8.032;2023-03-05T00:36:18;100859.50;;;2.79;100.00
60345;BME280;46188;52.324;8.032;2023-03-05T00:38:44;100866.34;;;2.77;100.00
60345;BME280;46188;52.324;8.032;2023-03-05T00:41:09;100862.41;;;2.67;100.00
60345;BME280;46188;52.324;8.032;2023-03-05T00:43:35;100864.91;;;2.66;100.00
60345;BME280;46188;52.324;8.032;2023-03-05T00:46:00;100847.22;;;2.58;100.00
60345;BME280;46188;52.324;8.032;2023-03-05T00:48:26;100835.91;;;2.58;100.00
60345;BME280;46188;52.324;8.032;2023-03-05T00:50:51;100839.41;;;2.58;100.00
60345;BME280;46188;52.324;8.032;2023-03-05T00:53:17;100832.50;;;2.59;100.00
60345;BME280;46188;52.324;8.032;2023-03-05T00:55:43;100840.53;;;2.64;100.00
60345;BME280;46188;52.324;8.032;2023-03-05T00:58:08;100833.69;;;2.66;100.00
60345;BME280;46188;52.324;8.032;2023-03-05T01:00:35;100824.03;;;2.63;100.00
60345;BME280;46188;52.324;8.032;2023-03-05T01:03:01;100818.84;;;2.63;100.00
60345;BME280;46188;52.324;8.032;2023-03-05T01:05:26;100812.78;;;2.64;100.00
60345;BME280;46188;52.324;8.032;2023-03-05T01:07:53;100814.94;;;2.73;100.00
60345;BME280;46188;52.324;8.032;2023-03-05T01:10:19;100808.69;;;2.69;100.00
60345;BME280;46188;52.324;8.032;2023-03-05T01:12:46;100804.81;;;2.61;100.00
60345;BME280;46188;52.324;8.032;2023-03-05T01:15:11;100809.16;;;2.61;100.00
60345;BME280;46188;52.324;8.032;2023-03-05T01:17:37;100804.31;;;2.50;100.00
60345;BME280;46188;52.324;8.032;2023-03-05T01:20:04;100799.50;;;2.40;100.00
60345;BME280;46188;52.324;8.032;2023-03-05T01:22:31;100794.41;;;2.43;100.00
60345;BME280;46188;52.324;8.032;2023-03-05T01:24:57;100794.94;;;2.54;100.00
60345;BME280;46188;52.324;8.032;2023-03-05T01:27:22;100789.97;;;2.58;100.00
60345;BME280;46188;52.324;8.032;2023-03-05T01:29:48;100782.97;;;2.57;100.00
60345;BME280;46188;52.324;8.032;2023-03-05T01:32:13;100782.25;;;2.60;100.00
60345;BME280;46188;52.324;8.032;2023-03-05T01:34:39;100780.28;;;2.56;100.00
60345;BME280;46188;52.324;8.032;2023-03-05T01:37:06;100777.63;;;2.54;100.00
60345;BME280;46188;52.324;8.032;2023-03-05T01:39:31;100772.25;;;2.51;100.00
60345;BME280;46188;52.324;8.032;2023-03-05T01:41:57;100776.50;;;2.49;100.00
60345;BME280;46188;52.324;8.032;2023-03-05T01:44:25;100767.75;;;2.47;100.00
60345;BME280;46188;52.324;8.032;2023-03-05T01:46:51;100772.47;;;2.38;100.00
60345;BME280;46188;52.324;8.032;2023-03-05T01:52:17;100773.59;;;2.43;100.00
60345;BME280;46188;52.324;8.032;2023-03-05T01:57:27;100763.56;;;2.33;100.00
60345;BME280;46188;52.324;8.032;2023-03-05T01:59:59;100754.13;;;2.35;100.00
60345;BME280;46188;52.324;8.032;2023-03-05T02:02:26;100761.41;;;2.42;100.00
60345;BME280;46188;52.324;8.032;2023-03-05T02:04:59;100751.09;;;2.44;100.00
60345;BME280;46188;52.324;8.032;2023-03-05T02:07:26;100755.38;;;2.43;100.00
60345;BME280;46188;52.324;8.032;2023-03-05T02:09:53;100749.38;;;2.44;100.00
60345;BME280;46188;52.324;8.032;2023-03-05T02:12:19;100746.69;;;2.43;100.00
60345;BME280;46188;52.324;8.032;2023-03-05T02:14:46;100748.19;;;2.37;100.00
60345;BME280;46188;52.324;8.032;2023-03-05T02:17:14;100744.78;;;2.38;100.00
60345;BME280;46188;52.324;8.032;2023-03-05T02:19:50;100744.41;;;2.49;100.00
60345;BME280;46188;52.324;8.032;2023-03-05T02:22:20;100749.53;;;2.47;100.00
60345;BME280;46188;52.324;8.032;2023-03-05T02:24:46;100738.09;;;2.44;100.00
60345;BME280;46188;52.324;8.032;2023-03-05T02:27:12;100737.16;;;2.43;100.00
60345;BME280;46188;52.324;8.032;2023-03-05T02:29:43;100731.53;;;2.34;100.00
60345;BME280;46188;52.324;8.032;2023-03-05T02:32:10;100736.22;;;2.41;100.00
60345;BME280;46188;52.324;8.032;2023-03-05T02:34:36;100721.38;;;2.38;100.00
60345;BME280;46188;52.324;8.032;2023-03-05T02:37:02;100721.44;;;2.40;100.00
60345;BME280;46188;52.324;8.032;2023-03-05T02:39:32;100716.66;;;2.31;100.00
60345;BME280;46188;52.324;8.032;2023-03-05T02:41:57;100708.19;;;2.35;100.00
60345;BME280;46188;52.324;8.032;2023-03-05T02:44:23;100705.38;;;2.31;100.00
60345;BME280;46188;52.324;8.032;2023-03-05T02:46:48;100712.94;;;2.26;100.00
60345;BME280;46188;52.324;8.032;2023-03-05T02:49:14;100700.16;;;2.31;100.00
60345;BME280;46188;52.324;8.032;2023-03-05T02:51:39;100702.69;;;2.29;100.00
60345;BME280;46188;52.324;8.032;2023-03-05T02:54:05;100701.66;;;2.26;100.00
60345;BME280;46188;52.324;8.032;2023-03-05T02:56:30;100706.25;;;2.31;100.00
60345;BME280;46188;52.324;8.032;2023-03-05T02:58:56;100696.75;;;2.32;100.00
60345;BME280;46188;52.324;8.032;2023-03-05T03:01:21;100698.09;;;2.24;100.00
60345;BME280;46188;52.324;8.032;2023-03-05T03:03:47;100697.72;;;2.34;100.00
60345;BME280;46188;52.324;8.032;2023-03-05T03:06:12;100691.47;;;2.30;100.00
60345;BME280;46188;52.324;8.032;2023-03-05T03:08:38;100695.03;;;2.32;100.00
60345;BME280;46188;52.324;8.032;2023-03-05T03:11:08;100691.59;;;2.33;100.00
60345;BME280;46188;52.324;8.032;2023-03-05T03:13:34;100679.59;;;2.35;100.00
60345;BME280;46188;52.324;8.032;2023-03-05T03:16:05;100676.59;;;2.28;100.00
60345;BME280;46188;52.324;8.032;2023-03-05T03:18:31;100680.09;;;2.28;100.00
60345;BME280;46188;52.324;8.032;2023-03-05T03:20:56;100674.88;;;2.28;100.00
60345;BME280;46188;52.324;8.032;2023-03-05T03:23:22;100679.06;;;2.25;100.00
60345;BME280;46188;52.324;8.032;2023-03-05T03:25:48;100666.06;;;2.25;100.00
60345;BME280;46188;52.324;8.032;2023-03-05T03:28:13;100664.22;;;2.22;100.00
60345;BME280;46188;52.324;8.032;2023-03-05T03:30:38;100652.56;;;2.14;100.00
60345;BME280;46188;52.324;8.032;2023-03-05T03:33:04;100663.91;;;2.16;100.00
60345;BME280;46188;52.324;8.032;2023-03-05T03:35:29;100652.31;;;2.09;100.00
60345;BME280;46188;52.324;8.032;2023-03-05T03:37:55;100653.88;;;2.06;100.00
60345;BME280;46188;52.324;8.032;2023-03-05T03:40:20;100657.22;;;2.03;100.00
60345;BME280;46188;52.324;8.032;2023-03-05T03:42:53;100648.47;;;2.01;100.00
60345;BME280;46188;52.324;8.032;2023-03-05T03:45:19;100652.47;;;1.94;100.00
60345;BME280;46188;52.324;8.032;2023-03-05T03:47:47;100650.09;;;1.99;100.00
60345;BME280;46188;52.324;8.032;2023-03-05T03:50:13;100645.06;;;2.02;100.00
60345;BME280;46188;52.324;8.032;2023-03-05T03:52:38;100640.66;;;2.01;100.00
60345;BME280;46188;52.324;8.032;2023-03-05T03:55:04;100639.97;;;2.05;100.00
60345;BME280;46188;52.324;8.032;2023-03-05T03:57:31;100634.34;;;2.14;100.00
60345;BME280;46188;52.324;8.032;2023-03-05T03:59:59;100640.50;;;2.16;100.00
60345;BME280;46188;52.324;8.032;2023-03-05T04:02:25;100633.16;;;2.07;100.00
60345;BME280;46188;52.324;8.032;2023-03-05T04:04:51;100632.56;;;2.13;100.00
60345;BME280;46188;52.324;8.032;2023-03-05T04:07:17;100622.75;;;2.07;100.00
60345;BME280;46188;52.324;8.032;2023-03-05T04:09:42;100628.63;;;2.03;100.00
60345;BME280;46188;52.324;8.032;2023-03-05T04:12:08;100616.88;;;2.11;100.00
60345;BME280;46188;52.324;8.032;2023-03-05T04:14:33;100620.97;;;2.06;100.00
60345;BME280;46188;52.324;8.032;2023-03-05T04:16:59;100620.16;;;2.07;100.00
60345;BME280;46188;52.324;8.032;2023-03-05T04:19:24;100607.31;;;2.10;100.00
60345;BME280;46188;52.324;8.032;2023-03-05T04:21:50;100610.31;;;2.19;100.00
60345;BME280;46188;52.324;8.032;2023-03-05T04:24:16;100608.25;;;2.12;100.00
60345;BME280;46188;52.324;8.032;2023-03-05T04:26:41;100606.84;;;2.19;100.00
60345;BME280;46188;52.324;8.032;2023-03-05T04:29:06;100595.69;;;2.21;100.00
60345;BME280;46188;52.324;8.032;2023-03-05T04:31:32;100598.91;;;2.16;100.00
60345;BME280;46188;52.324;8.032;2023-03-05T04:33:58;100598.75;;;2.13;100.00
60345;BME280;46188;52.324;8.032;2023-03-05T04:36:24;100598.09;;;2.17;100.00
60345;BME280;46188;52.324;8.032;2023-03-05T04:38:49;100599.34;;;2.25;100.00
60345;BME280;46188;52.324;8.032;2023-03-05T04:41:15;100592.25;;;2.22;100.00
60345;BME280;46188;52.324;8.032;2023-03-05T04:43:41;100597.41;;;2.21;100.00
60345;BME280;46188;52.324;8.032;2023-03-05T04:46:06;100594.44;;;2.13;100.00
60345;BME280;46188;52.324;8.032;2023-03-05T04:48:32;100588.19;;;2.10;100.00
60345;BME280;46188;52.324;8.032;2023-03-05T04:50:57;100597.16;;;2.16;100.00
60345;BME280;46188;52.324;8.032;2023-03-05T04:53:23;100585.34;;;2.23;100.00
60345;BME280;46188;52.324;8.032;2023-03-05T04:55:55;100579.34;;;2.24;100.00
60345;BME280;46188;52.324;8.032;2023-03-05T04:58:22;100572.06;;;2.17;100.00
60345;BME280;46188;52.324;8.032;2023-03-05T05:00:48;100573.84;;;2.18;100.00
60345;BME280;46188;52.324;8.032;2023-03-05T05:03:13;100570.44;;;2.19;100.00
60345;BME280;46188;52.324;8.032;2023-03-05T05:05:39;100569.66;;;2.21;100.00
60345;BME280;46188;52.324;8.032;2023-03-05T05:08:05;100570.44;;;2.19;100.00
60345;BME280;46188;52.324;8.032;2023-03-05T05:10:30;100568.63;;;2.18;100.00
60345;BME280;46188;52.324;8.032;2023-03-05T05:12:56;100564.22;;;2.15;100.00
60345;BME280;46188;52.324;8.032;2023-03-05T05:15:21;100565.22;;;2.19;100.00
60345;BME280;46188;52.324;8.032;2023-03-05T05:17:47;100561.19;;;2.26;100.00
60345;BME280;46188;52.324;8.032;2023-03-05T05:20:14;100564.47;;;2.21;100.00
60345;BME280;46188;52.324;8.032;2023-03-05T05:22:40;100571.78;;;2.11;100.00
60345;BME280;46188;52.324;8.032;2023-03-05T05:25:06;100567.16;;;2.05;100.00
60345;BME280;46188;52.324;8.032;2023-03-05T05:27:32;100562.88;;;2.06;100.00
60345;BME280;46188;52.324;8.032;2023-03-05T05:29:59;100563.63;;;2.03;100.00
60345;BME280;46188;52.324;8.032;2023-03-05T05:32:25;100571.78;;;2.11;100.00
60345;BME280;46188;52.324;8.032;2023-03-05T05:34:54;100565.81;;;2.13;100.00
60345;BME280;46188;52.324;8.032;2023-03-05T05:37:20;100570.75;;;2.07;100.00
60345;BME280;46188;52.324;8.032;2023-03-05T05:39:45;100567.06;;;2.02;100.00
60345;BME280;46188;52.324;8.032;2023-03-05T05:42:18;100563.03;;;2.09;100.00
60345;BME280;46188;52.324;8.032;2023-03-05T05:44:43;100572.00;;;2.15;100.00
60345;BME280;46188;52.324;8.032;2023-03-05T05:47:09;100563.22;;;2.13;100.00
60345;BME280;46188;52.324;8.032;2023-03-05T05:49:34;100560.63;;;2.13;100.00
60345;BME280;46188;52.324;8.032;2023-03-05T05:52:00;100564.47;;;2.21;100.00
60345;BME280;46188;52.324;8.032;2023-03-05T05:54:25;100565.44;;;2.24;100.00
60345;BME280;46188;52.324;8.032;2023-03-05T05:56:51;100561.28;;;2.27;100.00
60345;BME280;46188;52.324;8.032;2023-03-05T05:59:17;100557.16;;;2.32;100.00
60345;BME280;46188;52.324;8.032;2023-03-05T06:01:42;100564.53;;;2.23;100.00
60345;BME280;46188;52.324;8.032;2023-03-05T06:04:09;100552.53;;;2.25;100.00
60345;BME280;46188;52.324;8.032;2023-03-05T06:06:34;100552.56;;;2.27;100.00
60345;BME280;46188;52.324;8.032;2023-03-05T06:09:00;100556.59;;;2.20;100.00
60345;BME280;46188;52.324;8.032;2023-03-05T06:11:26;100555.84;;;2.22;100.00
60345;BME280;46188;52.324;8.032;2023-03-05T06:13:52;100555.84;;;2.22;100.00
60345;BME280;46188;52.324;8.032;2023-03-05T06:16:21;100555.94;;;2.24;100.00
60345;BME280;46188;52.324;8.032;2023-03-05T06:18:48;100554.69;;;2.16;100.00
60345;BME280;46188;52.324;8.032;2023-03-05T06:21:16;100553.88;;;2.17;100.00
60345;BME280;46188;52.324;8.032;2023-03-05T06:23:42;100556.72;;;2.23;100.00
60345;BME280;46188;52.324;8.032;2023-03-05T06:26:10;100552.69;;;2.30;100.00
60345;BME280;46188;52.324;8.032;2023-03-05T06:28:36;100558.94;;;2.33;100.00
60345;BME280;46188;52.324;8.032;2023-03-05T06:31:07;100552.69;;;2.30;100.00
60345;BME280;46188;52.324;8.032;2023-03-05T06:33:33;100556.22;;;2.30;100.00
60345;BME280;46188;52.324;8.032;2023-03-05T06:36:01;100549.28;;;2.31;100.00
60345;BME280;46188;52.324;8.032;2023-03-05T06:38:26;100544.81;;;2.28;100.00
60345;BME280;46188;52.324;8.032;2023-03-05T06:40:52;100550.25;;;2.33;100.00
60345;BME280;46188;52.324;8.032;2023-03-05T06:43:17;100552.03;;;2.34;100.00
60345;BME280;46188;52.324;8.032;2023-03-05T06:45:43;100546.56;;;2.47;100.00
60345;BME280;46188;52.324;8.032;2023-03-05T06:48:08;100549.72;;;2.40;100.00
60345;BME280;46188;52.324;8.032;2023-03-05T06:50:35;100536.28;;;2.31;100.00
60345;BME280;46188;52.324;8.032;2023-03-05T06:53:01;100546.63;;;2.29;100.00
60345;BME280;46188;52.324;8.032;2023-03-05T06:55:26;100543.31;;;2.33;100.00
60345;BME280;46188;52.324;8.032;2023-03-05T06:57:52;100544.50;;;2.40;100.00
60345;BME280;46188;52.324;8.032;2023-03-05T07:00:20;100546.56;;;2.47;100.00
60345;BME280;46188;52.324;8.032;2023-03-05T07:02:46;100539.34;;;2.42;100.00
60345;BME280;46188;52.324;8.032;2023-03-05T07:05:11;100536.81;;;2.43;100.00
60345;BME280;46188;52.324;8.032;2023-03-05T07:07:37;100539.56;;;2.46;100.00
60345;BME280;46188;52.324;8.032;2023-03-05T07:10:03;100534.22;;;2.43;100.00
60345;BME280;46188;52.324;8.032;2023-03-05T07:12:32;100526.97;;;2.55;100.00
60345;BME280;46188;52.324;8.032;2023-03-05T07:14:58;100544.34;;;2.56;100.00
60345;BME280;46188;52.324;8.032;2023-03-05T07:17:23;100524.16;;;2.51;100.00
60345;BME280;46188;52.324;8.032;2023-03-05T07:19:49;100520.25;;;2.61;100.00
60345;BME280;46188;52.324;8.032;2023-03-05T07:22:15;100526.69;;;2.49;100.00
60345;BME280;46188;52.324;8.032;2023-03-05T07:24:40;100521.28;;;2.45;100.00
60345;BME280;46188;52.324;8.032;2023-03-05T07:27:06;100517.31;;;2.53;100.00
60345;BME280;46188;52.324;8.032;2023-03-05T07:29:31;100518.75;;;2.46;100.00
60345;BME280;46188;52.324;8.032;2023-03-05T07:31:57;100524.22;;;2.52;100.00
60345;BME280;46188;52.324;8.032;2023-03-05T07:34:22;100522.66;;;2.56;100.00
60345;BME280;46188;52.324;8.032;2023-03-05T07:36:49;100518.47;;;2.59;100.00
60345;BME280;46188;52.324;8.032;2023-03-05T07:39:15;100518.06;;;2.70;100.00
60345;BME280;46188;52.324;8.032;2023-03-05T07:41:44;100521.75;;;2.75;100.00
60345;BME280;46188;52.324;8.032;2023-03-05T07:44:09;100525.16;;;2.74;100.00
60345;BME280;46188;52.324;8.032;2023-03-05T07:46:35;100532.91;;;2.72;100.00
60345;BME280;46188;52.324;8.032;2023-03-05T07:49:01;100528.72;;;2.76;100.00
60345;BME280;46188;52.324;8.032;2023-03-05T07:51:26;100523.66;;;2.79;100.00
60345;BME280;46188;52.324;8.032;2023-03-05T07:53:54;100524.13;;;2.90;100.00
60345;BME280;46188;52.324;8.032;2023-03-05T07:56:23;100523.88;;;3.05;100.00
60345;BME280;46188;52.324;8.032;2023-03-05T07:58:49;100529.91;;;3.04;100.00
60345;BME280;46188;52.324;8.032;2023-03-05T08:01:15;100531.63;;;3.03;100.00
60345;BME280;46188;52.324;8.032;2023-03-05T08:03:41;100527.16;;;3.01;100.00
60345;BME280;46188;52.324;8.032;2023-03-05T08:06:07;100520.22;;;3.00;100.00
60345;BME280;46188;52.324;8.032;2023-03-05T08:08:33;100524.03;;;3.08;100.00
60345;BME280;46188;52.324;8.032;2023-03-05T08:11:09;100520.31;;;3.03;100.00
60345;BME280;46188;52.324;8.032;2023-03-05T08:13:35;100520.25;;;3.01;100.00
60345;BME280;46188;52.324;8.032;2023-03-05T08:16:09;100518.34;;;2.97;100.00
60345;BME280;46188;52.324;8.032;2023-03-05T08:18:35;100518.16;;;2.92;100.00
60345;BME280;46188;52.324;8.032;2023-03-05T08:21:01;100513.84;;;2.93;100.00
60345;BME280;46188;52.324;8.032;2023-03-05T08:23:27;100514.59;;;2.90;100.00
60345;BME280;46188;52.324;8.032;2023-03-05T08:25:53;100518.59;;;2.82;100.00
60345;BME280;46188;52.324;8.032;2023-03-05T08:28:19;100509.91;;;2.82;100.00
60345;BME280;46188;52.324;8.032;2023-03-05T08:30:45;100500.69;;;2.90;100.00
60345;BME280;46188;52.324;8.032;2023-03-05T08:33:11;100502.78;;;2.99;100.00
60345;BME280;46188;52.324;8.032;2023-03-05T08:35:37;100501.84;;;2.97;100.00
60345;BME280;46188;52.324;8.032;2023-03-05T08:38:05;100501.97;;;3.00;100.00
60345;BME280;46188;52.324;8.032;2023-03-05T08:40:30;100500.19;;;2.99;100.00
60345;BME280;46188;52.324;8.032;2023-03-05T08:42:57;100506.78;;;2.90;100.00
60345;BME280;46188;52.324;8.032;2023-03-05T08:45:24;100504.19;;;2.90;100.00
60345;BME280;46188;52.324;8.032;2023-03-05T08:47:50;100503.91;;;2.84;100.00
60345;BME280;46188;52.324;8.032;2023-03-05T08:50:15;100496.94;;;2.83;100.00
60345;BME280;46188;52.324;8.032;2023-03-05T08:52:48;100497.25;;;2.91;100.00
60345;BME280;46188;52.324;8.032;2023-03-05T08:55:13;100489.25;;;3.07;100.00
60345;BME280;46188;52.324;8.032;2023-03-05T08:57:40;100477.94;;;3.28;100.00
60345;BME280;46188;52.324;8.032;2023-03-05T09:00:08;100481.09;;;3.42;100.00
60345;BME280;46188;52.324;8.032;2023-03-05T09:02:35;100485.50;;;3.65;100.00
60345;BME280;46188;52.324;8.032;2023-03-05T09:05:01;100481.34;;;3.93;100.00
60345;BME280;46188;52.324;8.032;2023-03-05T09:07:27;100482.88;;;4.11;100.00
60345;BME280;46188;52.324;8.032;2023-03-05T09:09:52;100480.41;;;3.91;100.00
60345;BME280;46188;52.324;8.032;2023-03-05T09:12:18;100476.38;;;3.77;100.00
60345;BME280;46188;52.324;8.032;2023-03-05T09:14:43;100484.38;;;3.59;100.00
60345;BME280;46188;52.324;8.032;2023-03-05T09:17:09;100477.59;;;3.64;100.00
60345;BME280;46188;52.324;8.032;2023-03-05T09:19:34;100483.53;;;3.60;100.00
60345;BME280;46188;52.324;8.032;2023-03-05T09:21:59;100482.47;;;3.55;100.00
60345;BME280;46188;52.324;8.032;2023-03-05T09:24:25;100479.22;;;3.60;100.00
60345;BME280;46188;52.324;8.032;2023-03-05T09:26:50;100473.13;;;3.82;100.00
60345;BME280;46188;52.324;8.032;2023-03-05T09:29:16;100468.81;;;4.07;100.00
60345;BME280;46188;52.324;8.032;2023-03-05T09:31:42;100473.47;;;4.90;100.00
60345;BME280;46188;52.324;8.032;2023-03-05T09:34:09;100455.75;;;5.34;100.00
60345;BME280;46188;52.324;8.032;2023-03-05T09:36:35;100461.53;;;5.24;100.00
60345;BME280;46188;52.324;8.032;2023-03-05T09:39:01;100465.91;;;5.52;100.00
60345;BME280;46188;52.324;8.032;2023-03-05T09:42:23;100468.16;;;5.40;100.00
60345;BME280;46188;52.324;8.032;2023-03-05T09:49:46;100456.66;;;4.32;100.00
60345;BME280;46188;52.324;8.032;2023-03-05T09:55:44;100456.19;;;4.18;100.00
60345;BME280;46188;52.324;8.032;2023-03-05T10:00:53;100443.84;;;7.71;100.00
60345;BME280;46188;52.324;8.032;2023-03-05T10:03:27;100447.00;;;7.96;100.00
60345;BME280;46188;52.324;8.032;2023-03-05T10:08:57;100443.28;;;8.29;84.48
60345;BME280;46188;52.324;8.032;2023-03-05T10:11:36;100440.91;;;7.57;86.45
60345;BME280;46188;52.324;8.032;2023-03-05T10:14:03;100446.56;;;6.35;93.84
60345;BME280;46188;52.324;8.032;2023-03-05T10:19:22;100441.13;;;5.12;100.00
60345;BME280;46188;52.324;8.032;2023-03-05T10:41:35;100396.41;;;8.03;85.73
60345;BME280;46188;52.324;8.032;2023-03-05T10:44:16;100394.94;;;8.18;79.11
60345;BME280;46188;52.324;8.032;2023-03-05T10:46:43;100377.47;;;8.68;79.99
60345;BME280;46188;52.324;8.032;2023-03-05T10:49:20;100384.22;;;8.07;80.87
60345;BME280;46188;52.324;8.032;2023-03-05T10:54:30;100385.78;;;6.13;88.93
60345;BME280;46188;52.324;8.032;2023-03-05T10:57:25;100396.19;;;5.81;93.03
60345;BME280;46188;52.324;8.032;2023-03-05T11:00:06;100384.25;;;5.61;93.94
60345;BME280;46188;52.324;8.032;2023-03-05T11:02:57;100379.28;;;5.40;95.69
60345;BME280;46188;52.324;8.032;2023-03-05T11:05:45;100383.44;;;5.33;97.18
60345;BME280;46188;52.324;8.032;2023-03-05T11:10:43;100372.13;;;5.34;97.35
60345;BME280;46188;52.324;8.032;2023-03-05T11:13:23;100362.44;;;5.30;97.30
60345;BME280;46188;52.324;8.032;2023-03-05T11:16:00;100366.19;;;5.11;96.84
60345;BME280;46188;52.324;8.032;2023-03-05T11:18:26;100363.63;;;4.85;95.36
60345;BME280;46188;52.324;8.032;2023-03-05T11:21:06;100354.78;;;4.80;94.67
60345;BME280;46188;52.324;8.032;2023-03-05T11:23:32;100353.66;;;5.01;94.29
60345;BME280;46188;52.324;8.032;2023-03-05T11:28:39;100344.88;;;5.86;89.77
60345;BME280;46188;52.324;8.032;2023-03-05T11:39:20;100339.66;;;6.18;81.40
60345;BME280;46188;52.324;8.032;2023-03-05T11:42:11;100328.22;;;5.83;82.96
60345;BME280;46188;52.324;8.032;2023-03-05T11:44:47;100333.50;;;6.16;82.82
60345;BME280;46188;52.324;8.032;2023-03-05T11:50:23;100315.09;;;7.21;80.94
60345;BME280;46188;52.324;8.032;2023-03-05T11:53:04;100323.97;;;6.90;79.68
60345;BME280;46188;52.324;8.032;2023-03-05T11:58:26;100308.09;;;6.47;81.50
60345;BME280;46188;52.324;8.032;2023-03-05T12:00:55;100301.28;;;6.52;82.40
60345;BME280;46188;52.324;8.032;2023-03-05T12:03:28;100300.59;;;6.97;81.25
60345;BME280;46188;52.324;8.032;2023-03-05T12:08:36;100296.72;;;7.21;79.66
60345;BME280;46188;52.324;8.032;2023-03-05T12:11:16;100293.69;;;7.42;78.75
60345;BME280;46188;52.324;8.032;2023-03-05T12:13:49;100294.41;;;6.94;77.95
60345;BME280;46188;52.324;8.032;2023-03-05T12:21:40;100276.44;;;6.36;78.17
60345;BME280;46188;52.324;8.032;2023-03-05T12:29:29;100255.34;;;7.49;75.50
60345;BME280;46188;52.324;8.032;2023-03-05T12:31:55;100264.34;;;7.60;73.22
60345;BME280;46188;52.324;8.032;2023-03-05T12:45:32;100231.81;;;8.01;72.30
60345;BME280;46188;52.324;8.032;2023-03-05T12:53:16;100220.69;;;8.16;70.42
60345;BME280;46188;52.324;8.032;2023-03-05T12:58:24;100216.50;;;7.75;70.95
60345;BME280;46188;52.324;8.032;2023-03-05T13:01:30;100208.59;;;7.28;72.71
60345;BME280;46188;52.324;8.032;2023-03-05T13:04:02;100205.00;;;7.23;74.09
60345;BME280;46188;52.324;8.032;2023-03-05T13:06:33;100201.66;;;7.31;74.10
60345;BME280;46188;52.324;8.032;2023-03-05T13:09:26;100204.25;;;7.30;74.66
60345;BME280;46188;52.324;8.032;2023-03-05T13:11:54;100205.88;;;7.22;74.40
60345;BME280;46188;52.324;8.032;2023-03-05T13:14:34;100198.28;;;6.93;75.03
60345;BME280;46188;52.324;8.032;2023-03-05T13:17:01;100190.16;;;6.80;73.49
60345;BME280;46188;52.324;8.032;2023-03-05T13:19:28;100189.19;;;6.77;73.96
60345;BME280;46188;52.324;8.032;2023-03-05T13:21:59;100186.06;;;6.52;73.37
60345;BME280;46188;52.324;8.032;2023-03-05T13:24:26;100187.38;;;6.35;74.63
60345;BME280;46188;52.324;8.032;2023-03-05T13:26:51;100191.59;;;6.28;75.30
60345;BME280;46188;52.324;8.032;2023-03-05T13:29:21;100185.25;;;6.18;75.52
60345;BME280;46188;52.324;8.032;2023-03-05T13:31:51;100190.94;;;6.02;74.80
60345;BME280;46188;52.324;8.032;2023-03-05T13:34:33;100184.38;;;5.84;74.97
60345;BME280;46188;52.324;8.032;2023-03-05T13:37:16;100174.97;;;5.91;76.09
60345;BME280;46188;52.324;8.032;2023-03-05T13:39:47;100180.91;;;5.85;76.53
60345;BME280;46188;52.324;8.032;2023-03-05T13:42:18;100181.66;;;5.80;77.23
60345;BME280;46188;52.324;8.032;2023-03-05T13:44:56;100169.25;;;5.72;77.73
60345;BME280;46188;52.324;8.032;2023-03-05T13:47:24;100162.50;;;5.82;78.34
60345;BME280;46188;52.324;8.032;2023-03-05T13:50:01;100169.28;;;5.74;78.72
60345;BME280;46188;52.324;8.032;2023-03-05T13:52:31;100168.00;;;5.91;77.65
60345;BME280;46188;52.324;8.032;2023-03-05T13:55:01;100157.44;;;5.88;77.57
60345;BME280;46188;52.324;8.032;2023-03-05T13:57:41;100165.75;;;5.72;76.42
60345;BME280;46188;52.324;8.032;2023-03-05T14:00:29;100165.06;;;5.79;76.72
60345;BME280;46188;52.324;8.032;2023-03-05T14:02:58;100159.06;;;5.83;76.65
60345;BME280;46188;52.324;8.032;2023-03-05T14:05:24;100150.91;;;6.04;77.41
60345;BME280;46188;52.324;8.032;2023-03-05T14:07:51;100148.59;;;6.18;77.13
60345;BME280;46188;52.324;8.032;2023-03-05T14:10:30;100142.81;;;6.32;77.46
60345;BME280;46188;52.324;8.032;2023-03-05T14:12:58;100139.53;;;6.83;76.29
60345;BME280;46188;52.324;8.032;2023-03-05T14:15:28;100135.00;;;7.17;76.53
60345;BME280;46188;52.324;8.032;2023-03-05T14:20:33;100119.03;;;7.06;74.67
60345;BME280;46188;52.324;8.032;2023-03-05T14:25:49;100112.91;;;6.61;75.59
60345;BME280;46188;52.324;8.032;2023-03-05T14:30:47;100112.75;;;6.14;77.20
60345;BME280;46188;52.324;8.032;2023-03-05T14:33:14;100109.34;;;6.18;77.58
60345;BME280;46188;52.324;8.032;2023-03-05T14:35:47;100101.72;;;6.27;77.40
60345;BME280;46188;52.324;8.032;2023-03-05T14:38:26;100105.25;;;6.30;77.86
60345;BME280;46188;52.324;8.032;2023-03-05T14:40:53;100094.72;;;6.28;77.10
60345;BME280;46188;52.324;8.032;2023-03-05T14:43:18;100090.34;;;6.27;78.18